Terminal Aerodrome Forecast
Issued by NWS

Home | Current Version | Previous Version | Text Only | Print | Product List | Glossary On
Versions: 1 2 3 4 5 6 7 8 9 10 11 12 13 14 15 16 17 18 19 20 21 22 23 24 25 26 27 28 29
000
FTUS43 KDLH 290600 AAA
TAFHIB
TAF AMD
KHIB 290604Z 2906/3006 33014KT P6SM SCT008 OVC014
      TEMPO 2906/2909 4SM -SHRA BR OVC007
     FM290900 32010G15KT P6SM OVC008
     FM291500 31009G14KT P6SM OVC015
     FM291900 26007KT P6SM BKN022 OVC035
     FM300100 20007KT P6SM OVC028=

USA.gov is the U.S. government's official web portal to all federal, state and local government web resources and services.